sensor_id;sensor_type;location;lat;lon;timestamp;temperature;humidity
44533;DHT22;48673;53.016;-2.258;2022-07-23T00:00:45;16.10;89.80
44533;DHT22;48673;53.016;-2.258;2022-07-23T00:03:14;16.10;89.80
44533;DHT22;48673;53.016;-2.258;2022-07-23T00:05:42;16.10;89.70
44533;DHT22;48673;53.016;-2.258;2022-07-23T00:08:10;16.10;89.70
44533;DHT22;48673;53.016;-2.258;2022-07-23T00:10:41;16.20;89.70
44533;DHT22;48673;53.016;-2.258;2022-07-23T00:13:09;16.10;89.80
44533;DHT22;48673;53.016;-2.258;2022-07-23T00:15:37;16.10;90.00
44533;DHT22;48673;53.016;-2.258;2022-07-23T00:18:05;16.20;90.10
44533;DHT22;48673;53.016;-2.258;2022-07-23T00:20:33;16.20;90.10
44533;DHT22;48673;53.016;-2.258;2022-07-23T00:23:01;16.20;90.20
44533;DHT22;48673;53.016;-2.258;2022-07-23T00:25:28;16.20;90.20
44533;DHT22;48673;53.016;-2.258;2022-07-23T00:27:59;16.20;90.20
44533;DHT22;48673;53.016;-2.258;2022-07-23T00:30:28;16.20;90.30
44533;DHT22;48673;53.016;-2.258;2022-07-23T00:33:02;16.20;90.40
44533;DHT22;48673;53.016;-2.258;2022-07-23T00:35:32;16.20;90.40
44533;DHT22;48673;53.016;-2.258;2022-07-23T00:38:03;16.20;90.40
44533;DHT22;48673;53.016;-2.258;2022-07-23T00:40:32;16.20;90.50
44533;DHT22;48673;53.016;-2.258;2022-07-23T00:43:00;16.30;90.40
44533;DHT22;48673;53.016;-2.258;2022-07-23T00:45:28;16.20;90.40
44533;DHT22;48673;53.016;-2.258;2022-07-23T00:47:56;16.20;90.50
44533;DHT22;48673;53.016;-2.258;2022-07-23T00:50:24;16.20;90.60
44533;DHT22;48673;53.016;-2.258;2022-07-23T00:52:52;16.20;90.60
44533;DHT22;48673;53.016;-2.258;2022-07-23T00:55:20;16.20;90.70
44533;DHT22;48673;53.016;-2.258;2022-07-23T00:57:48;16.20;90.80
44533;DHT22;48673;53.016;-2.258;2022-07-23T01:00:16;16.20;90.90
44533;DHT22;48673;53.016;-2.258;2022-07-23T01:02:44;16.20;90.90
44533;DHT22;48673;53.016;-2.258;2022-07-23T01:05:15;16.20;90.90
44533;DHT22;48673;53.016;-2.258;2022-07-23T01:07:43;16.20;91.00
44533;DHT22;48673;53.016;-2.258;2022-07-23T01:10:12;16.20;91.00
44533;DHT22;48673;53.016;-2.258;2022-07-23T01:15:30;16.20;91.00
44533;DHT22;48673;53.016;-2.258;2022-07-23T01:17:58;16.20;91.10
44533;DHT22;48673;53.016;-2.258;2022-07-23T01:20:27;16.20;90.90
44533;DHT22;48673;53.016;-2.258;2022-07-23T01:22:55;16.20;90.90
44533;DHT22;48673;53.016;-2.258;2022-07-23T01:25:23;16.20;90.90
44533;DHT22;48673;53.016;-2.258;2022-07-23T01:27:57;16.20;91.00
44533;DHT22;48673;53.016;-2.258;2022-07-23T01:30:25;16.20;91.10
44533;DHT22;48673;53.016;-2.258;2022-07-23T01:32:54;16.30;91.10
44533;DHT22;48673;53.016;-2.258;2022-07-23T01:35:22;16.30;91.10
44533;DHT22;48673;53.016;-2.258;2022-07-23T01:37:52;16.20;91.00
44533;DHT22;48673;53.016;-2.258;2022-07-23T01:40:21;16.20;91.00
44533;DHT22;48673;53.016;-2.258;2022-07-23T01:42:51;16.10;90.90
44533;DHT22;48673;53.016;-2.258;2022-07-23T01:45:20;16.10;90.90
44533;DHT22;48673;53.016;-2.258;2022-07-23T01:47:50;16.00;90.80
44533;DHT22;48673;53.016;-2.258;2022-07-23T01:50:18;15.90;90.80
44533;DHT22;48673;53.016;-2.258;2022-07-23T01:53:05;15.90;90.90
44533;DHT22;48673;53.016;-2.258;2022-07-23T01:55:35;15.80;90.90
44533;DHT22;48673;53.016;-2.258;2022-07-23T01:58:04;15.70;91.00
44533;DHT22;48673;53.016;-2.258;2022-07-23T02:00:33;15.60;91.10
44533;DHT22;48673;53.016;-2.258;2022-07-23T02:03:01;15.60;91.20
44533;DHT22;48673;53.016;-2.258;2022-07-23T02:05:30;15.60;91.30
44533;DHT22;48673;53.016;-2.258;2022-07-23T02:08:00;15.50;91.30
44533;DHT22;48673;53.016;-2.258;2022-07-23T02:10:32;15.50;91.40
44533;DHT22;48673;53.016;-2.258;2022-07-23T02:13:03;15.50;91.40
44533;DHT22;48673;53.016;-2.258;2022-07-23T02:15:31;15.50;91.50
44533;DHT22;48673;53.016;-2.258;2022-07-23T02:17:59;15.50;91.50
44533;DHT22;48673;53.016;-2.258;2022-07-23T02:20:27;15.50;91.50
44533;DHT22;48673;53.016;-2.258;2022-07-23T02:22:55;15.50;91.50
44533;DHT22;48673;53.016;-2.258;2022-07-23T02:25:23;15.50;91.50
44533;DHT22;48673;53.016;-2.258;2022-07-23T02:27:55;15.50;91.50
44533;DHT22;48673;53.016;-2.258;2022-07-23T02:30:23;15.50;91.50
44533;DHT22;48673;53.016;-2.258;2022-07-23T02:32:51;15.60;91.40
44533;DHT22;48673;53.016;-2.258;2022-07-23T02:35:19;15.60;91.50
44533;DHT22;48673;53.016;-2.258;2022-07-23T02:37:47;15.60;91.40
44533;DHT22;48673;53.016;-2.258;2022-07-23T02:40:18;15.60;91.30
44533;DHT22;48673;53.016;-2.258;2022-07-23T02:42:46;15.70;91.30
44533;DHT22;48673;53.016;-2.258;2022-07-23T02:45:14;15.70;91.20
44533;DHT22;48673;53.016;-2.258;2022-07-23T02:47:43;15.70;91.20
44533;DHT22;48673;53.016;-2.258;2022-07-23T02:50:11;15.70;91.10
44533;DHT22;48673;53.016;-2.258;2022-07-23T02:52:39;15.70;91.00
44533;DHT22;48673;53.016;-2.258;2022-07-23T02:55:08;15.70;90.90
44533;DHT22;48673;53.016;-2.258;2022-07-23T02:57:36;15.70;91.00
44533;DHT22;48673;53.016;-2.258;2022-07-23T03:00:05;15.60;91.00
44533;DHT22;48673;53.016;-2.258;2022-07-23T03:02:33;15.60;91.00
44533;DHT22;48673;53.016;-2.258;2022-07-23T03:05:02;15.60;91.00
44533;DHT22;48673;53.016;-2.258;2022-07-23T03:07:29;15.60;91.00
44533;DHT22;48673;53.016;-2.258;2022-07-23T03:09:57;15.70;91.00
44533;DHT22;48673;53.016;-2.258;2022-07-23T03:12:25;15.70;91.00
44533;DHT22;48673;53.016;-2.258;2022-07-23T03:14:53;15.70;91.00
44533;DHT22;48673;53.016;-2.258;2022-07-23T03:17:21;15.60;90.90
44533;DHT22;48673;53.016;-2.258;2022-07-23T03:19:49;15.50;90.80
44533;DHT22;48673;53.016;-2.258;2022-07-23T03:22:17;15.50;90.80
44533;DHT22;48673;53.016;-2.258;2022-07-23T03:24:45;15.40;90.90
44533;DHT22;48673;53.016;-2.258;2022-07-23T03:27:29;15.40;91.00
44533;DHT22;48673;53.016;-2.258;2022-07-23T03:29:58;15.30;91.10
44533;DHT22;48673;53.016;-2.258;2022-07-23T03:32:26;15.40;91.10
44533;DHT22;48673;53.016;-2.258;2022-07-23T03:34:55;15.30;91.10
44533;DHT22;48673;53.016;-2.258;2022-07-23T03:37:24;15.30;91.10
44533;DHT22;48673;53.016;-2.258;2022-07-23T03:39:52;15.30;91.00
44533;DHT22;48673;53.016;-2.258;2022-07-23T03:42:20;15.20;90.90
44533;DHT22;48673;53.016;-2.258;2022-07-23T03:44:47;15.20;91.00
44533;DHT22;48673;53.016;-2.258;2022-07-23T03:47:16;15.20;91.00
44533;DHT22;48673;53.016;-2.258;2022-07-23T03:49:44;15.20;91.00
44533;DHT22;48673;53.016;-2.258;2022-07-23T03:52:12;15.20;91.00
44533;DHT22;48673;53.016;-2.258;2022-07-23T03:54:40;15.20;91.00
44533;DHT22;48673;53.016;-2.258;2022-07-23T03:57:08;15.20;90.90
44533;DHT22;48673;53.016;-2.258;2022-07-23T03:59:36;15.20;90.90
44533;DHT22;48673;53.016;-2.258;2022-07-23T04:02:04;15.20;90.90
44533;DHT22;48673;53.016;-2.258;2022-07-23T04:04:32;15.20;90.90
44533;DHT22;48673;53.016;-2.258;2022-07-23T04:07:01;15.20;90.90
44533;DHT22;48673;53.016;-2.258;2022-07-23T04:09:30;15.20;90.90
44533;DHT22;48673;53.016;-2.258;2022-07-23T04:11:58;15.20;90.80
44533;DHT22;48673;53.016;-2.258;2022-07-23T04:14:25;15.20;90.90
44533;DHT22;48673;53.016;-2.258;2022-07-23T04:16:54;15.20;90.80
44533;DHT22;48673;53.016;-2.258;2022-07-23T04:19:21;15.20;90.80
44533;DHT22;48673;53.016;-2.258;2022-07-23T04:21:59;15.10;90.70
44533;DHT22;48673;53.016;-2.258;2022-07-23T04:24:28;15.00;90.70
44533;DHT22;48673;53.016;-2.258;2022-07-23T04:26:56;14.90;90.70
44533;DHT22;48673;53.016;-2.258;2022-07-23T04:29:25;14.90;90.70
44533;DHT22;48673;53.016;-2.258;2022-07-23T04:31:52;14.80;90.70
44533;DHT22;48673;53.016;-2.258;2022-07-23T04:34:21;14.80;90.70
44533;DHT22;48673;53.016;-2.258;2022-07-23T04:36:49;14.70;90.70
44533;DHT22;48673;53.016;-2.258;2022-07-23T04:39:17;14.60;90.70
44533;DHT22;48673;53.016;-2.258;2022-07-23T04:41:46;14.60;90.80
44533;DHT22;48673;53.016;-2.258;2022-07-23T04:44:15;14.50;90.90
44533;DHT22;48673;53.016;-2.258;2022-07-23T04:46:42;14.50;91.00
44533;DHT22;48673;53.016;-2.258;2022-07-23T04:49:10;14.50;91.10
44533;DHT22;48673;53.016;-2.258;2022-07-23T04:51:38;14.50;91.20
44533;DHT22;48673;53.016;-2.258;2022-07-23T04:54:07;14.60;91.30
44533;DHT22;48673;53.016;-2.258;2022-07-23T04:56:35;14.70;91.30
44533;DHT22;48673;53.016;-2.258;2022-07-23T04:59:03;14.80;91.30
44533;DHT22;48673;53.016;-2.258;2022-07-23T05:01:31;14.80;91.30
44533;DHT22;48673;53.016;-2.258;2022-07-23T05:03:59;14.90;91.20
44533;DHT22;48673;53.016;-2.258;2022-07-23T05:06:31;14.90;91.10
44533;DHT22;48673;53.016;-2.258;2022-07-23T05:08:59;15.00;91.10
44533;DHT22;48673;53.016;-2.258;2022-07-23T05:11:29;15.00;90.90
44533;DHT22;48673;53.016;-2.258;2022-07-23T05:13:57;15.10;91.00
44533;DHT22;48673;53.016;-2.258;2022-07-23T05:16:25;15.10;90.90
44533;DHT22;48673;53.016;-2.258;2022-07-23T05:18:58;15.20;90.80
44533;DHT22;48673;53.016;-2.258;2022-07-23T05:21:27;15.20;90.80
44533;DHT22;48673;53.016;-2.258;2022-07-23T05:23:54;15.20;90.80
44533;DHT22;48673;53.016;-2.258;2022-07-23T05:26:22;15.30;90.90
44533;DHT22;48673;53.016;-2.258;2022-07-23T05:28:51;15.30;90.90
44533;DHT22;48673;53.016;-2.258;2022-07-23T05:31:20;15.30;90.90
44533;DHT22;48673;53.016;-2.258;2022-07-23T05:33:48;15.40;90.80
44533;DHT22;48673;53.016;-2.258;2022-07-23T05:36:16;15.40;90.80
44533;DHT22;48673;53.016;-2.258;2022-07-23T05:38:50;15.40;90.60
44533;DHT22;48673;53.016;-2.258;2022-07-23T05:41:18;15.40;90.40
44533;DHT22;48673;53.016;-2.258;2022-07-23T05:43:46;15.40;90.10
44533;DHT22;48673;53.016;-2.258;2022-07-23T05:46:15;15.40;90.10
44533;DHT22;48673;53.016;-2.258;2022-07-23T05:48:46;15.30;90.00
44533;DHT22;48673;53.016;-2.258;2022-07-23T05:51:36;15.30;90.00
44533;DHT22;48673;53.016;-2.258;2022-07-23T05:54:06;15.40;90.00
44533;DHT22;48673;53.016;-2.258;2022-07-23T05:56:37;15.50;89.90
44533;DHT22;48673;53.016;-2.258;2022-07-23T05:59:06;15.60;89.90
44533;DHT22;48673;53.016;-2.258;2022-07-23T06:01:36;15.70;89.80
44533;DHT22;48673;53.016;-2.258;2022-07-23T06:04:11;15.80;89.60
44533;DHT22;48673;53.016;-2.258;2022-07-23T06:06:45;15.80;89.40
44533;DHT22;48673;53.016;-2.258;2022-07-23T06:09:13;15.90;89.30
44533;DHT22;48673;53.016;-2.258;2022-07-23T06:11:41;15.90;89.10
44533;DHT22;48673;53.016;-2.258;2022-07-23T06:14:09;15.90;89.00
44533;DHT22;48673;53.016;-2.258;2022-07-23T06:16:49;15.90;88.90
44533;DHT22;48673;53.016;-2.258;2022-07-23T06:19:17;15.90;88.90
44533;DHT22;48673;53.016;-2.258;2022-07-23T06:21:45;15.90;88.90
44533;DHT22;48673;53.016;-2.258;2022-07-23T06:24:16;15.90;88.80
44533;DHT22;48673;53.016;-2.258;2022-07-23T06:26:43;16.00;88.90
44533;DHT22;48673;53.016;-2.258;2022-07-23T06:29:12;16.00;88.80
44533;DHT22;48673;53.016;-2.258;2022-07-23T06:31:43;16.10;88.80
44533;DHT22;48673;53.016;-2.258;2022-07-23T06:34:16;16.10;88.70
44533;DHT22;48673;53.016;-2.258;2022-07-23T06:36:45;16.10;88.70
44533;DHT22;48673;53.016;-2.258;2022-07-23T06:39:17;16.20;88.80
44533;DHT22;48673;53.016;-2.258;2022-07-23T06:41:49;16.30;88.70
44533;DHT22;48673;53.016;-2.258;2022-07-23T06:44:40;16.20;88.50
44533;DHT22;48673;53.016;-2.258;2022-07-23T06:47:08;16.30;88.30
44533;DHT22;48673;53.016;-2.258;2022-07-23T06:49:42;16.20;88.20
44533;DHT22;48673;53.016;-2.258;2022-07-23T06:52:11;16.20;88.20
44533;DHT22;48673;53.016;-2.258;2022-07-23T06:54:39;16.20;88.30
44533;DHT22;48673;53.016;-2.258;2022-07-23T06:57:08;16.20;88.30
44533;DHT22;48673;53.016;-2.258;2022-07-23T06:59:38;16.30;88.40
44533;DHT22;48673;53.016;-2.258;2022-07-23T07:02:10;16.40;88.30
44533;DHT22;48673;53.016;-2.258;2022-07-23T07:04:38;16.50;88.20
44533;DHT22;48673;53.016;-2.258;2022-07-23T07:07:08;16.70;88.00
44533;DHT22;48673;53.016;-2.258;2022-07-23T07:09:37;16.90;87.90
44533;DHT22;48673;53.016;-2.258;2022-07-23T07:12:05;16.90;87.60
44533;DHT22;48673;53.016;-2.258;2022-07-23T07:14:35;17.00;87.20
44533;DHT22;48673;53.016;-2.258;2022-07-23T07:17:04;17.00;86.80
44533;DHT22;48673;53.016;-2.258;2022-07-23T07:19:33;17.00;86.60
44533;DHT22;48673;53.016;-2.258;2022-07-23T07:22:03;17.00;86.40
44533;DHT22;48673;53.016;-2.258;2022-07-23T07:24:32;17.10;86.50
44533;DHT22;48673;53.016;-2.258;2022-07-23T07:27:05;17.20;86.50
44533;DHT22;48673;53.016;-2.258;2022-07-23T07:29:37;17.30;86.40
44533;DHT22;48673;53.016;-2.258;2022-07-23T07:32:06;17.40;86.00
44533;DHT22;48673;53.016;-2.258;2022-07-23T07:34:35;17.40;85.60
44533;DHT22;48673;53.016;-2.258;2022-07-23T07:37:03;17.50;85.30
44533;DHT22;48673;53.016;-2.258;2022-07-23T07:39:31;17.60;85.10
44533;DHT22;48673;53.016;-2.258;2022-07-23T07:42:00;17.60;85.00
44533;DHT22;48673;53.016;-2.258;2022-07-23T07:44:28;17.60;84.80
44533;DHT22;48673;53.016;-2.258;2022-07-23T07:46:58;17.60;84.60
44533;DHT22;48673;53.016;-2.258;2022-07-23T07:49:27;17.60;84.20
44533;DHT22;48673;53.016;-2.258;2022-07-23T07:52:02;17.50;84.20
44533;DHT22;48673;53.016;-2.258;2022-07-23T07:54:30;17.60;84.20
44533;DHT22;48673;53.016;-2.258;2022-07-23T07:57:00;17.70;84.20
44533;DHT22;48673;53.016;-2.258;2022-07-23T07:59:28;17.90;83.70
44533;DHT22;48673;53.016;-2.258;2022-07-23T08:02:00;18.00;83.30
44533;DHT22;48673;53.016;-2.258;2022-07-23T08:04:29;18.10;82.50
44533;DHT22;48673;53.016;-2.258;2022-07-23T08:06:56;18.10;82.30
44533;DHT22;48673;53.016;-2.258;2022-07-23T08:09:24;18.10;81.90
44533;DHT22;48673;53.016;-2.258;2022-07-23T08:11:53;18.10;81.80
44533;DHT22;48673;53.016;-2.258;2022-07-23T08:14:21;18.20;81.90
44533;DHT22;48673;53.016;-2.258;2022-07-23T08:16:48;18.20;81.40
44533;DHT22;48673;53.016;-2.258;2022-07-23T08:19:38;18.20;80.50
44533;DHT22;48673;53.016;-2.258;2022-07-23T08:22:07;18.10;79.70
44533;DHT22;48673;53.016;-2.258;2022-07-23T08:24:35;18.00;79.70
44533;DHT22;48673;53.016;-2.258;2022-07-23T08:27:03;17.90;79.60
44533;DHT22;48673;53.016;-2.258;2022-07-23T08:29:33;17.80;79.70
44533;DHT22;48673;53.016;-2.258;2022-07-23T08:32:02;17.70;79.70
44533;DHT22;48673;53.016;-2.258;2022-07-23T08:34:51;17.70;79.90
44533;DHT22;48673;53.016;-2.258;2022-07-23T08:37:19;17.80;79.30
44533;DHT22;48673;53.016;-2.258;2022-07-23T08:39:47;17.70;78.80
44533;DHT22;48673;53.016;-2.258;2022-07-23T08:42:16;17.70;78.80
44533;DHT22;48673;53.016;-2.258;2022-07-23T08:44:45;17.90;78.80
44533;DHT22;48673;53.016;-2.258;2022-07-23T08:47:15;18.10;78.60
44533;DHT22;48673;53.016;-2.258;2022-07-23T08:49:46;18.40;78.30
44533;DHT22;48673;53.016;-2.258;2022-07-23T08:52:15;18.70;78.00
44533;DHT22;48673;53.016;-2.258;2022-07-23T08:54:44;19.10;77.00
44533;DHT22;48673;53.016;-2.258;2022-07-23T08:57:12;19.50;74.20
44533;DHT22;48673;53.016;-2.258;2022-07-23T08:59:45;19.70;72.60
44533;DHT22;48673;53.016;-2.258;2022-07-23T09:02:13;19.90;71.50
44533;DHT22;48673;53.016;-2.258;2022-07-23T09:04:41;19.90;70.60
44533;DHT22;48673;53.016;-2.258;2022-07-23T09:07:09;20.10;69.40
44533;DHT22;48673;53.016;-2.258;2022-07-23T09:09:37;20.30;68.70
44533;DHT22;48673;53.016;-2.258;2022-07-23T09:12:07;20.50;68.50
44533;DHT22;48673;53.016;-2.258;2022-07-23T09:14:46;20.90;67.60
44533;DHT22;48673;53.016;-2.258;2022-07-23T09:17:17;21.00;65.50
44533;DHT22;48673;53.016;-2.258;2022-07-23T09:19:45;21.10;64.90
44533;DHT22;48673;53.016;-2.258;2022-07-23T09:22:21;21.10;64.60
44533;DHT22;48673;53.016;-2.258;2022-07-23T09:25:11;21.20;64.00
44533;DHT22;48673;53.016;-2.258;2022-07-23T09:30:27;21.20;64.40
44533;DHT22;48673;53.016;-2.258;2022-07-23T09:33:16;21.10;64.10
44533;DHT22;48673;53.016;-2.258;2022-07-23T09:35:53;20.90;63.50
44533;DHT22;48673;53.016;-2.258;2022-07-23T09:38:23;20.80;63.40
44533;DHT22;48673;53.016;-2.258;2022-07-23T09:41:09;20.60;63.70
44533;DHT22;48673;53.016;-2.258;2022-07-23T09:43:38;20.40;64.30
44533;DHT22;48673;53.016;-2.258;2022-07-23T09:46:26;20.20;64.50
44533;DHT22;48673;53.016;-2.258;2022-07-23T09:48:55;20.10;63.90
44533;DHT22;48673;53.016;-2.258;2022-07-23T09:51:26;19.90;64.50
44533;DHT22;48673;53.016;-2.258;2022-07-23T09:54:06;19.90;64.70
44533;DHT22;48673;53.016;-2.258;2022-07-23T09:56:48;19.70;64.90
44533;DHT22;48673;53.016;-2.258;2022-07-23T09:59:16;19.60;65.40
44533;DHT22;48673;53.016;-2.258;2022-07-23T10:01:46;19.60;65.70
44533;DHT22;48673;53.016;-2.258;2022-07-23T10:04:14;19.50;66.20
44533;DHT22;48673;53.016;-2.258;2022-07-23T10:07:13;19.50;66.50
44533;DHT22;48673;53.016;-2.258;2022-07-23T10:10:03;19.50;66.70
44533;DHT22;48673;53.016;-2.258;2022-07-23T10:12:58;19.40;67.30
44533;DHT22;48673;53.016;-2.258;2022-07-23T10:15:30;19.40;67.70
44533;DHT22;48673;53.016;-2.258;2022-07-23T10:17:58;19.40;67.90
44533;DHT22;48673;53.016;-2.258;2022-07-23T10:20:25;19.40;68.20
44533;DHT22;48673;53.016;-2.258;2022-07-23T10:26:12;19.30;69.40
44533;DHT22;48673;53.016;-2.258;2022-07-23T10:29:06;19.40;69.80
44533;DHT22;48673;53.016;-2.258;2022-07-23T10:34:41;18.90;71.90
44533;DHT22;48673;53.016;-2.258;2022-07-23T10:37:15;18.70;72.70
44533;DHT22;48673;53.016;-2.258;2022-07-23T10:42:37;18.40;74.20
44533;DHT22;48673;53.016;-2.258;2022-07-23T10:45:34;18.40;74.40
44533;DHT22;48673;53.016;-2.258;2022-07-23T10:48:22;18.50;74.30
44533;DHT22;48673;53.016;-2.258;2022-07-23T10:51:13;18.50;74.50
44533;DHT22;48673;53.016;-2.258;2022-07-23T10:53:59;18.60;74.80
44533;DHT22;48673;53.016;-2.258;2022-07-23T10:56:50;18.60;74.70
44533;DHT22;48673;53.016;-2.258;2022-07-23T10:59:31;18.50;74.80
44533;DHT22;48673;53.016;-2.258;2022-07-23T11:02:21;18.50;75.20
44533;DHT22;48673;53.016;-2.258;2022-07-23T11:04:51;18.60;75.50
44533;DHT22;48673;53.016;-2.258;2022-07-23T11:07:20;18.50;75.60
44533;DHT22;48673;53.016;-2.258;2022-07-23T11:09:48;18.60;75.60
44533;DHT22;48673;53.016;-2.258;2022-07-23T11:15:15;18.60;75.80
44533;DHT22;48673;53.016;-2.258;2022-07-23T11:22:54;18.60;76.10
44533;DHT22;48673;53.016;-2.258;2022-07-23T11:27:51;18.80;76.10
44533;DHT22;48673;53.016;-2.258;2022-07-23T11:35:38;19.00;75.70
44533;DHT22;48673;53.016;-2.258;2022-07-23T11:38:21;19.00;75.60
44533;DHT22;48673;53.016;-2.258;2022-07-23T11:40:55;19.20;75.70
44533;DHT22;48673;53.016;-2.258;2022-07-23T11:43:26;19.30;75.40
44533;DHT22;48673;53.016;-2.258;2022-07-23T11:45:57;19.40;75.20
44533;DHT22;48673;53.016;-2.258;2022-07-23T11:48:28;19.60;74.80
44533;DHT22;48673;53.016;-2.258;2022-07-23T11:50:57;19.90;74.20
44533;DHT22;48673;53.016;-2.258;2022-07-23T11:55:54;20.40;72.30
44533;DHT22;48673;53.016;-2.258;2022-07-23T11:58:29;20.70;71.20
44533;DHT22;48673;53.016;-2.258;2022-07-23T12:00:58;20.90;70.30
44533;DHT22;48673;53.016;-2.258;2022-07-23T12:03:27;21.10;69.70
44533;DHT22;48673;53.016;-2.258;2022-07-23T12:05:57;21.30;69.20
44533;DHT22;48673;53.016;-2.258;2022-07-23T12:08:25;21.50;68.10
44533;DHT22;48673;53.016;-2.258;2022-07-23T12:10:52;21.60;67.30
44533;DHT22;48673;53.016;-2.258;2022-07-23T12:13:21;21.60;66.70
44533;DHT22;48673;53.016;-2.258;2022-07-23T12:15:51;21.50;66.50
44533;DHT22;48673;53.016;-2.258;2022-07-23T12:18:25;21.40;66.30
44533;DHT22;48673;53.016;-2.258;2022-07-23T12:20:58;21.30;66.80
44533;DHT22;48673;53.016;-2.258;2022-07-23T12:23:30;21.20;67.30
44533;DHT22;48673;53.016;-2.258;2022-07-23T12:26:02;21.00;67.10
44533;DHT22;48673;53.016;-2.258;2022-07-23T12:28:32;20.80;67.40
44533;DHT22;48673;53.016;-2.258;2022-07-23T12:31:00;20.60;67.80
44533;DHT22;48673;53.016;-2.258;2022-07-23T12:33:35;20.60;68.20
44533;DHT22;48673;53.016;-2.258;2022-07-23T12:36:08;20.70;68.60
44533;DHT22;48673;53.016;-2.258;2022-07-23T12:38:57;20.70;68.70
44533;DHT22;48673;53.016;-2.258;2022-07-23T12:41:25;20.80;68.60
44533;DHT22;48673;53.016;-2.258;2022-07-23T12:43:52;20.90;68.40
44533;DHT22;48673;53.016;-2.258;2022-07-23T12:46:21;20.90;68.30
44533;DHT22;48673;53.016;-2.258;2022-07-23T12:48:52;21.00;68.20
44533;DHT22;48673;53.016;-2.258;2022-07-23T12:51:30;20.90;68.50
44533;DHT22;48673;53.016;-2.258;2022-07-23T12:54:09;20.80;68.40
44533;DHT22;48673;53.016;-2.258;2022-07-23T12:56:39;20.80;68.40
44533;DHT22;48673;53.016;-2.258;2022-07-23T12:59:15;20.70;68.70
44533;DHT22;48673;53.016;-2.258;2022-07-23T13:01:55;20.60;69.20
44533;DHT22;48673;53.016;-2.258;2022-07-23T13:04:26;20.70;69.40
44533;DHT22;48673;53.016;-2.258;2022-07-23T13:06:56;20.80;69.20
44533;DHT22;48673;53.016;-2.258;2022-07-23T13:09:29;20.90;68.90
44533;DHT22;48673;53.016;-2.258;2022-07-23T13:12:18;20.90;68.80
44533;DHT22;48673;53.016;-2.258;2022-07-23T13:14:47;21.00;68.90
44533;DHT22;48673;53.016;-2.258;2022-07-23T13:17:15;21.20;68.80
44533;DHT22;48673;53.016;-2.258;2022-07-23T13:19:47;21.40;68.40
44533;DHT22;48673;53.016;-2.258;2022-07-23T13:22:16;21.50;67.90
44533;DHT22;48673;53.016;-2.258;2022-07-23T13:24:44;21.60;68.00
44533;DHT22;48673;53.016;-2.258;2022-07-23T13:27:14;21.70;67.50
44533;DHT22;48673;53.016;-2.258;2022-07-23T13:29:44;21.70;67.40
44533;DHT22;48673;53.016;-2.258;2022-07-23T13:32:13;21.70;67.10
44533;DHT22;48673;53.016;-2.258;2022-07-23T13:34:42;21.70;67.10
44533;DHT22;48673;53.016;-2.258;2022-07-23T13:37:11;21.70;67.10
44533;DHT22;48673;53.016;-2.258;2022-07-23T13:39:41;21.70;66.80
44533;DHT22;48673;53.016;-2.258;2022-07-23T13:42:09;21.70;67.30
44533;DHT22;48673;53.016;-2.258;2022-07-23T13:44:38;21.70;67.20
44533;DHT22;48673;53.016;-2.258;2022-07-23T13:47:06;21.70;67.70
44533;DHT22;48673;53.016;-2.258;2022-07-23T13:49:34;21.70;67.80
44533;DHT22;48673;53.016;-2.258;2022-07-23T13:52:04;21.60;68.00
44533;DHT22;48673;53.016;-2.258;2022-07-23T13:54:34;21.50;67.90
44533;DHT22;48673;53.016;-2.258;2022-07-23T13:57:03;21.40;68.30
44533;DHT22;48673;53.016;-2.258;2022-07-23T13:59:32;21.20;68.70
44533;DHT22;48673;53.016;-2.258;2022-07-23T14:02:05;21.00;69.30
44533;DHT22;48673;53.016;-2.258;2022-07-23T14:04:48;20.90;69.60
44533;DHT22;48673;53.016;-2.258;2022-07-23T14:07:17;20.80;70.00
44533;DHT22;48673;53.016;-2.258;2022-07-23T14:09:47;20.70;70.20
44533;DHT22;48673;53.016;-2.258;2022-07-23T14:12:15;20.50;70.70
44533;DHT22;48673;53.016;-2.258;2022-07-23T14:14:44;20.40;70.90
44533;DHT22;48673;53.016;-2.258;2022-07-23T14:17:13;20.40;71.30
44533;DHT22;48673;53.016;-2.258;2022-07-23T14:19:41;20.40;71.50
44533;DHT22;48673;53.016;-2.258;2022-07-23T14:22:11;20.40;71.50
44533;DHT22;48673;53.016;-2.258;2022-07-23T14:24:39;20.30;71.70
44533;DHT22;48673;53.016;-2.258;2022-07-23T14:27:07;20.40;71.80
44533;DHT22;48673;53.016;-2.258;2022-07-23T14:29:35;20.30;71.80
44533;DHT22;48673;53.016;-2.258;2022-07-23T14:32:04;20.30;71.90
44533;DHT22;48673;53.016;-2.258;2022-07-23T14:34:34;20.30;71.90
44533;DHT22;48673;53.016;-2.258;2022-07-23T14:37:04;20.40;71.90
44533;DHT22;48673;53.016;-2.258;2022-07-23T14:39:42;20.40;71.80
44533;DHT22;48673;53.016;-2.258;2022-07-23T14:42:13;20.70;71.70
44533;DHT22;48673;53.016;-2.258;2022-07-23T14:44:41;20.90;71.30
44533;DHT22;48673;53.016;-2.258;2022-07-23T14:47:09;21.00;70.80
44533;DHT22;48673;53.016;-2.258;2022-07-23T14:49:38;21.20;70.60
44533;DHT22;48673;53.016;-2.258;2022-07-23T14:52:06;21.20;70.00
44533;DHT22;48673;53.016;-2.258;2022-07-23T14:54:34;21.20;69.80
44533;DHT22;48673;53.016;-2.258;2022-07-23T14:57:03;21.20;69.50
44533;DHT22;48673;53.016;-2.258;2022-07-23T14:59:31;21.20;69.40
44533;DHT22;48673;53.016;-2.258;2022-07-23T15:02:01;21.10;69.60
44533;DHT22;48673;53.016;-2.258;2022-07-23T15:04:29;21.10;69.90
44533;DHT22;48673;53.016;-2.258;2022-07-23T15:07:05;21.10;69.80
44533;DHT22;48673;53.016;-2.258;2022-07-23T15:09:33;21.20;69.70
44533;DHT22;48673;53.016;-2.258;2022-07-23T15:12:04;21.40;69.80
44533;DHT22;48673;53.016;-2.258;2022-07-23T15:14:34;21.60;69.30
44533;DHT22;48673;53.016;-2.258;2022-07-23T15:17:03;21.70;68.50
44533;DHT22;48673;53.016;-2.258;2022-07-23T15:19:31;21.80;68.20
44533;DHT22;48673;53.016;-2.258;2022-07-23T15:21:59;21.90;67.80
44533;DHT22;48673;53.016;-2.258;2022-07-23T15:24:32;21.90;67.70
44533;DHT22;48673;53.016;-2.258;2022-07-23T15:27:00;21.80;67.90
44533;DHT22;48673;53.016;-2.258;2022-07-23T15:29:29;21.70;68.00
44533;DHT22;48673;53.016;-2.258;2022-07-23T15:31:56;21.70;68.10
44533;DHT22;48673;53.016;-2.258;2022-07-23T15:34:26;21.70;68.00
44533;DHT22;48673;53.016;-2.258;2022-07-23T15:36:54;21.70;67.90
44533;DHT22;48673;53.016;-2.258;2022-07-23T15:39:22;21.60;68.00
44533;DHT22;48673;53.016;-2.258;2022-07-23T15:41:50;21.50;68.00
44533;DHT22;48673;53.016;-2.258;2022-07-23T15:44:18;21.40;68.10
44533;DHT22;48673;53.016;-2.258;2022-07-23T15:46:56;21.30;68.60
44533;DHT22;48673;53.016;-2.258;2022-07-23T15:49:26;21.20;69.00
44533;DHT22;48673;53.016;-2.258;2022-07-23T15:51:55;21.10;69.40
44533;DHT22;48673;53.016;-2.258;2022-07-23T15:54:24;20.90;69.80
44533;DHT22;48673;53.016;-2.258;2022-07-23T15:56:53;20.90;70.00
44533;DHT22;48673;53.016;-2.258;2022-07-23T15:59:22;20.90;70.20
44533;DHT22;48673;53.016;-2.258;2022-07-23T16:01:56;20.90;70.30
44533;DHT22;48673;53.016;-2.258;2022-07-23T16:04:24;20.90;70.20
44533;DHT22;48673;53.016;-2.258;2022-07-23T16:06:52;21.00;70.20
44533;DHT22;48673;53.016;-2.258;2022-07-23T16:09:20;21.00;70.00